createdAt,value
2018-01-21T00:00:25.666Z,18.05
2018-01-21T00:01:31.390Z,18.67
2018-01-21T00:02:37.135Z,19.05
2018-01-21T00:03:42.873Z,20.10
2018-01-21T00:04:48.614Z,20.35
2018-01-21T00:05:54.386Z,17.50
2018-01-21T00:07:00.116Z,18.65
2018-01-21T00:08:05.840Z,18.20
2018-01-21T00:09:11.568Z,18.45
2018-01-21T00:10:17.312Z,18.52
2018-01-21T00:11:23.084Z,17.62
2018-01-21T00:12:28.818Z,18.40
2018-01-21T00:13:34.578Z,18.80
2018-01-21T00:14:40.324Z,18.67
2018-01-21T00:15:46.053Z,16.83
2018-01-21T00:16:51.652Z,17.37
2018-01-21T00:17:57.409Z,16.87
2018-01-21T00:19:03.155Z,17.35
2018-01-21T00:20:08.903Z,17.12
2018-01-21T00:21:14.635Z,17.45
2018-01-21T00:22:47.105Z,16.17
2018-01-21T00:23:52.836Z,18.70
2018-01-21T00:24:58.563Z,17.40
2018-01-21T00:26:05.072Z,18.45
2018-01-21T00:27:10.835Z,16.58
2018-01-21T00:28:16.613Z,17.65
2018-01-21T00:29:22.383Z,16.40
2018-01-21T00:30:28.126Z,17.45
2018-01-21T00:31:33.872Z,15.82
2018-01-21T00:32:39.600Z,15.90
2018-01-21T00:33:45.363Z,16.00
2018-01-21T00:34:51.108Z,14.95
2018-01-21T00:35:56.849Z,17.00
2018-01-21T00:37:02.594Z,15.60
2018-01-21T00:38:09.132Z,15.15
2018-01-21T00:39:14.950Z,14.98
2018-01-21T00:40:20.703Z,14.20
2018-01-21T00:41:26.428Z,15.68
2018-01-21T00:42:32.187Z,14.65
2018-01-21T00:43:37.924Z,14.73
2018-01-21T00:44:43.677Z,14.40
2018-01-21T00:45:49.395Z,15.82
2018-01-21T00:46:55.160Z,14.93
2018-01-21T00:48:00.896Z,15.63
2018-01-21T00:49:06.639Z,15.50
2018-01-21T00:50:12.438Z,15.38
2018-01-21T00:51:18.947Z,14.70
2018-01-21T00:52:24.837Z,14.73
2018-01-21T00:53:31.352Z,15.40
2018-01-21T00:54:37.084Z,14.25
2018-01-21T00:55:42.857Z,14.07
2018-01-21T00:56:48.611Z,14.43
2018-01-21T00:57:54.354Z,13.48
2018-01-21T00:59:00.152Z,15.02
2018-01-21T01:00:05.242Z,16.35
2018-01-21T01:01:11.761Z,14.75
2018-01-21T01:02:17.510Z,13.77
2018-01-21T01:03:23.258Z,13.25
2018-01-21T01:04:29.059Z,13.60
2018-01-21T01:05:34.806Z,15.23
2018-01-21T01:06:40.572Z,13.73
2018-01-21T01:07:47.838Z,13.55
2018-01-21T01:08:53.580Z,13.85
2018-01-21T01:09:59.336Z,13.70
2018-01-21T01:11:05.086Z,13.60
2018-01-21T01:12:10.864Z,13.45
2018-01-21T01:13:16.588Z,13.23
2018-01-21T01:14:23.128Z,14.50
2018-01-21T01:15:29.704Z,13.65
2018-01-21T01:16:35.651Z,13.05
2018-01-21T01:17:42.182Z,14.13
2018-01-21T01:18:48.918Z,12.82
2018-01-21T01:19:54.666Z,15.38
2018-01-21T01:21:00.398Z,13.85
2018-01-21T01:22:06.148Z,13.73
2018-01-21T01:23:11.904Z,13.80
2018-01-21T01:24:17.639Z,13.55
2018-01-21T01:25:23.375Z,14.30
2018-01-21T01:26:29.173Z,13.98
2018-01-21T01:27:34.925Z,14.87
2018-01-21T01:28:40.699Z,12.85
2018-01-21T01:29:46.450Z,13.30
2018-01-21T01:30:52.195Z,12.10
2018-01-21T01:31:57.941Z,13.82
2018-01-21T01:33:03.664Z,13.10
2018-01-21T01:34:09.431Z,12.20
2018-01-21T01:35:15.182Z,14.68
2018-01-21T01:36:20.935Z,13.23
2018-01-21T01:37:27.563Z,12.48
2018-01-21T01:38:32.982Z,13.25
2018-01-21T01:39:38.735Z,13.60
2018-01-21T01:40:44.487Z,12.65
2018-01-21T01:41:50.240Z,12.98
2018-01-21T01:42:56.025Z,12.40
2018-01-21T01:44:01.752Z,12.10
2018-01-21T01:45:07.503Z,11.15
2018-01-21T01:46:13.240Z,13.05
2018-01-21T01:47:18.976Z,12.95
2018-01-21T01:48:24.714Z,14.20
2018-01-21T01:49:31.232Z,12.55
2018-01-21T01:50:36.992Z,13.07
2018-01-21T01:51:42.721Z,12.55
2018-01-21T01:52:49.218Z,12.25
2018-01-21T01:53:54.964Z,11.00
2018-01-21T01:55:00.696Z,11.90
2018-01-21T01:56:06.451Z,11.57
2018-01-21T01:57:12.176Z,11.63
2018-01-21T01:58:17.931Z,12.20
2018-01-21T01:59:23.677Z,11.98
2018-01-21T02:00:29.428Z,12.00
2018-01-21T02:01:35.201Z,12.13
2018-01-21T02:02:40.986Z,12.43
2018-01-21T02:03:46.725Z,10.80
2018-01-21T02:04:53.266Z,12.23
2018-01-21T02:05:59.013Z,11.70
2018-01-21T02:07:05.564Z,11.63
2018-01-21T02:08:11.287Z,12.23
2018-01-21T02:09:17.043Z,12.40
2018-01-21T02:10:22.768Z,12.30
2018-01-21T02:11:28.520Z,14.40
2018-01-21T02:12:34.295Z,13.43
2018-01-21T02:13:40.806Z,11.55
2018-01-21T02:14:46.539Z,13.38
2018-01-21T02:15:52.278Z,12.52
2018-01-21T02:16:58.022Z,11.73
2018-01-21T02:18:03.775Z,12.88
2018-01-21T02:19:09.519Z,11.20
2018-01-21T02:20:18.372Z,12.10
2018-01-21T02:21:24.128Z,12.15
2018-01-21T02:22:29.890Z,12.50
2018-01-21T02:23:35.656Z,12.25
2018-01-21T02:24:42.177Z,14.25
2018-01-21T02:25:47.895Z,12.40
2018-01-21T02:26:54.392Z,12.27
2018-01-21T02:28:00.124Z,12.52
2018-01-21T02:29:05.885Z,12.27
2018-01-21T02:30:10.786Z,12.48
2018-01-21T02:31:16.559Z,13.07
2018-01-21T02:32:22.292Z,14.02
2018-01-21T02:33:28.019Z,13.57
2018-01-21T02:34:33.800Z,13.55
2018-01-21T02:35:39.541Z,13.40
2018-01-21T02:36:46.052Z,15.02
2018-01-21T02:37:51.798Z,15.43
2018-01-21T02:38:57.582Z,13.90
2018-01-21T02:40:03.359Z,14.15
2018-01-21T02:41:09.112Z,14.73
2018-01-21T02:42:14.864Z,14.80
2018-01-21T02:43:20.612Z,14.80
2018-01-21T02:44:26.375Z,14.38
2018-01-21T02:45:32.156Z,15.15
2018-01-21T02:46:38.669Z,16.10
2018-01-21T02:47:44.398Z,16.10
2018-01-21T02:48:50.144Z,15.65
2018-01-21T02:49:55.872Z,16.33
2018-01-21T02:51:01.628Z,16.10
2018-01-21T02:52:07.429Z,16.83
2018-01-21T02:53:13.185Z,15.88
2018-01-21T02:54:19.026Z,17.48
2018-01-21T02:55:24.779Z,15.77
2018-01-21T02:56:30.599Z,16.77
2018-01-21T02:57:36.331Z,16.37
2018-01-21T02:58:42.816Z,16.90
2018-01-21T02:59:48.561Z,18.30
2018-01-21T03:00:54.303Z,16.12
2018-01-21T03:02:00.072Z,17.60
2018-01-21T03:03:07.313Z,17.62
2018-01-21T03:04:13.059Z,18.25
2018-01-21T03:05:18.784Z,15.95
2018-01-21T03:06:24.524Z,15.93
2018-01-21T03:07:30.320Z,15.50
2018-01-21T03:08:36.853Z,17.60
2018-01-21T03:09:42.598Z,16.95
2018-01-21T03:10:48.343Z,14.80
2018-01-21T03:11:54.103Z,17.25
2018-01-21T03:12:59.880Z,18.50
2018-01-21T03:14:06.430Z,18.70
2018-01-21T03:15:12.916Z,17.33
2018-01-21T03:16:18.672Z,16.12
2018-01-21T03:17:24.411Z,17.90
2018-01-21T03:18:30.203Z,17.17
2018-01-21T03:19:35.940Z,17.62
2018-01-21T03:20:41.678Z,18.70
2018-01-21T03:21:47.426Z,18.17
2018-01-21T03:22:53.153Z,17.00
2018-01-21T03:23:58.921Z,16.65
2018-01-21T03:25:05.421Z,17.77
2018-01-21T03:26:10.958Z,18.25
2018-01-21T03:27:16.719Z,16.65
2018-01-21T03:28:22.446Z,17.87
2018-01-21T03:29:28.210Z,17.05
2018-01-21T03:30:33.951Z,16.35
2018-01-21T03:31:40.465Z,17.65
2018-01-21T03:32:46.211Z,18.55
2018-01-21T03:33:51.942Z,16.83
2018-01-21T03:34:57.786Z,15.65
2018-01-21T03:36:03.516Z,16.48
2018-01-21T03:37:10.072Z,17.52
2018-01-21T03:38:16.607Z,16.70
2018-01-21T03:39:23.914Z,16.42
2018-01-21T03:40:30.454Z,17.02
2018-01-21T03:41:36.953Z,17.05
2018-01-21T03:42:42.696Z,16.52
2018-01-21T03:43:48.525Z,17.98
2018-01-21T03:44:54.261Z,15.05
2018-01-21T03:46:00.621Z,17.40
2018-01-21T03:47:07.180Z,17.65
2018-01-21T03:48:12.926Z,16.87
2018-01-21T03:49:18.677Z,16.20
2018-01-21T03:50:24.408Z,16.45
2018-01-21T03:51:30.166Z,15.90
2018-01-21T03:52:35.901Z,15.30
2018-01-21T03:53:41.445Z,15.93
2018-01-21T03:54:47.185Z,15.50
2018-01-21T03:55:52.908Z,16.15
2018-01-21T03:56:58.661Z,17.12
2018-01-21T03:58:04.186Z,14.77
2018-01-21T03:59:09.913Z,16.23
2018-01-21T04:00:15.652Z,16.00
2018-01-21T04:01:22.174Z,15.95
2018-01-21T04:02:27.936Z,15.75
2018-01-21T04:03:34.433Z,15.57
2018-01-21T04:04:40.157Z,15.50
2018-01-21T04:05:45.915Z,15.13
2018-01-21T04:06:51.665Z,15.43
2018-01-21T04:07:57.428Z,16.30
2018-01-21T04:09:03.196Z,15.20
2018-01-21T04:10:08.941Z,15.05
2018-01-21T04:11:14.691Z,14.93
2018-01-21T04:12:21.213Z,15.52
2018-01-21T04:13:27.010Z,14.87
2018-01-21T04:14:32.810Z,15.57
2018-01-21T04:15:38.544Z,15.15
2018-01-21T04:16:44.291Z,14.25
2018-01-21T04:17:50.050Z,14.05
2018-01-21T04:18:55.844Z,15.32
2018-01-21T04:20:01.592Z,14.15
2018-01-21T04:21:07.320Z,16.42
2018-01-21T04:22:13.091Z,14.07
2018-01-21T04:23:18.628Z,13.90
2018-01-21T04:24:24.388Z,14.15
2018-01-21T04:25:30.128Z,13.40
2018-01-21T04:26:35.880Z,13.00
2018-01-21T04:27:41.605Z,13.35
2018-01-21T04:28:47.354Z,12.18
2018-01-21T04:29:53.127Z,13.32
2018-01-21T04:30:58.874Z,12.82
2018-01-21T04:32:04.604Z,12.00
2018-01-21T04:33:11.119Z,12.00
2018-01-21T04:34:16.539Z,11.93
2018-01-21T04:35:22.306Z,12.30
2018-01-21T04:36:29.540Z,14.15
2018-01-21T04:37:35.284Z,13.57
2018-01-21T04:38:41.804Z,12.65
2018-01-21T04:39:48.321Z,12.95
2018-01-21T04:40:53.775Z,13.27
2018-01-21T04:42:00.307Z,13.25
2018-01-21T04:43:06.056Z,13.60
2018-01-21T04:44:11.788Z,12.35
2018-01-21T04:45:17.539Z,13.65
2018-01-21T04:46:22.986Z,14.15
2018-01-21T04:47:28.758Z,13.70
2018-01-21T04:48:35.007Z,12.43
2018-01-21T04:49:41.501Z,15.02
2018-01-21T04:50:47.244Z,14.70
2018-01-21T04:51:52.996Z,14.40
2018-01-21T04:52:58.727Z,13.43
2018-01-21T04:54:04.473Z,14.90
2018-01-21T04:55:10.195Z,16.52
2018-01-21T04:56:15.956Z,15.07
2018-01-21T04:57:21.718Z,15.15
2018-01-21T04:58:27.457Z,15.40
2018-01-21T04:59:33.207Z,15.60
2018-01-21T05:00:38.950Z,15.63
2018-01-21T05:01:44.350Z,17.05
2018-01-21T05:02:50.096Z,16.98
2018-01-21T05:03:55.828Z,16.98
2018-01-21T05:05:01.235Z,17.75
2018-01-21T05:06:07.747Z,16.58
2018-01-21T05:07:13.477Z,16.52
2018-01-21T05:08:19.251Z,16.98
2018-01-21T05:09:24.964Z,18.15
2018-01-21T05:10:30.715Z,16.75
2018-01-21T05:11:36.427Z,17.20
2018-01-21T05:12:42.160Z,16.20
2018-01-21T05:13:47.943Z,17.37
2018-01-21T05:14:53.689Z,17.42
2018-01-21T05:15:59.408Z,17.20
2018-01-21T05:17:05.147Z,18.10
2018-01-21T05:18:10.873Z,18.27
2018-01-21T05:19:16.624Z,17.05
2018-01-21T05:20:22.361Z,16.37
2018-01-21T05:21:28.089Z,18.02
2018-01-21T05:22:33.831Z,17.55
2018-01-21T05:23:39.560Z,16.65
2018-01-21T05:24:46.178Z,17.85
2018-01-21T05:25:51.904Z,18.33
2018-01-21T05:26:57.620Z,17.10
2018-01-21T05:28:03.452Z,17.45
2018-01-21T05:29:09.185Z,16.83
2018-01-21T05:30:15.700Z,17.00
2018-01-21T05:31:21.454Z,18.10
2018-01-21T05:32:27.183Z,17.48
2018-01-21T05:33:32.944Z,18.70
2018-01-21T05:34:38.696Z,19.25
2018-01-21T05:35:45.217Z,18.00
2018-01-21T05:36:50.950Z,19.30
2018-01-21T05:37:56.686Z,18.70
2018-01-21T05:39:02.412Z,18.80
2018-01-21T05:40:08.169Z,18.75
2018-01-21T05:41:13.930Z,18.65
2018-01-21T05:42:19.676Z,19.12
2018-01-21T05:43:25.401Z,19.60
2018-01-21T05:44:31.126Z,19.33
2018-01-21T05:45:36.867Z,20.17
2018-01-21T05:46:42.632Z,18.52
2018-01-21T05:47:48.349Z,19.90
2018-01-21T05:48:54.104Z,21.00
2018-01-21T05:49:59.859Z,20.00
2018-01-21T05:51:05.409Z,19.83
2018-01-21T05:52:11.152Z,19.58
2018-01-21T05:53:17.642Z,20.85
2018-01-21T05:54:23.962Z,21.40
2018-01-21T05:55:29.714Z,19.48
2018-01-21T05:56:36.624Z,20.15
2018-01-21T05:57:42.437Z,20.90
2018-01-21T05:58:48.936Z,20.15
2018-01-21T05:59:54.682Z,20.20
2018-01-21T06:01:00.494Z,19.62
2018-01-21T06:02:06.252Z,20.60
2018-01-21T06:03:12.059Z,20.42
2018-01-21T06:04:17.976Z,20.05
2018-01-21T06:05:23.716Z,20.70
2018-01-21T06:06:29.444Z,20.75
2018-01-21T06:07:35.164Z,20.83
2018-01-21T06:08:40.947Z,19.95
2018-01-21T06:09:46.682Z,21.67
2018-01-21T06:10:52.427Z,22.25
2018-01-21T06:11:58.162Z,19.55
2018-01-21T06:13:03.881Z,20.75
2018-01-21T06:14:09.628Z,20.52
2018-01-21T06:15:15.367Z,20.25
2018-01-21T06:16:21.097Z,21.83
2018-01-21T06:17:26.838Z,20.95
2018-01-21T06:18:32.580Z,21.87
2018-01-21T06:19:38.152Z,21.25
2018-01-21T06:20:43.689Z,21.87
2018-01-21T06:21:50.206Z,22.55
2018-01-21T06:22:55.932Z,21.85
2018-01-21T06:24:01.659Z,21.85
2018-01-21T06:25:07.463Z,22.50
2018-01-21T06:26:13.191Z,23.25
2018-01-21T06:27:18.944Z,23.38
2018-01-21T06:28:24.659Z,24.23
2018-01-21T06:29:30.409Z,21.42
2018-01-21T06:30:36.156Z,23.12
2018-01-21T06:31:41.889Z,21.98
2018-01-21T06:32:47.617Z,23.80
2018-01-21T06:33:53.340Z,23.30
2018-01-21T06:34:59.072Z,22.55
2018-01-21T06:36:04.842Z,22.75
2018-01-21T06:37:10.574Z,22.17
2018-01-21T06:38:16.296Z,22.90
2018-01-21T06:39:22.816Z,21.25
2018-01-21T06:40:28.601Z,23.30
2018-01-21T06:41:35.119Z,23.52
2018-01-21T06:42:40.845Z,22.75
2018-01-21T06:43:46.630Z,22.98
2018-01-21T06:44:53.118Z,23.00
2018-01-21T06:45:58.868Z,23.75
2018-01-21T06:47:04.612Z,23.30
2018-01-21T06:48:10.585Z,23.12
2018-01-21T06:49:16.331Z,23.02
2018-01-21T06:50:22.052Z,24.67
2018-01-21T06:51:27.776Z,23.30
2018-01-21T06:52:33.754Z,22.08
2018-01-21T06:53:39.476Z,21.95
2018-01-21T06:54:45.226Z,22.90
2018-01-21T06:55:50.964Z,22.98
2018-01-21T06:56:56.694Z,23.42
2018-01-21T06:58:02.479Z,22.02
2018-01-21T06:59:08.237Z,22.58
2018-01-21T07:00:14.746Z,21.87
2018-01-21T07:01:20.476Z,20.52
2018-01-21T07:02:26.194Z,20.42
2018-01-21T07:03:31.956Z,21.92
2018-01-21T07:04:37.699Z,20.58
2018-01-21T07:05:43.431Z,20.95
2018-01-21T07:06:49.232Z,20.73
2018-01-21T07:07:55.163Z,21.37
2018-01-21T07:09:00.948Z,20.85
2018-01-21T07:10:06.672Z,21.10
2018-01-21T07:11:13.183Z,20.90
2018-01-21T07:12:18.910Z,20.55
2018-01-21T07:13:24.666Z,20.85
2018-01-21T07:14:30.435Z,20.55
2018-01-21T07:15:36.215Z,21.42
2018-01-21T07:16:41.975Z,20.25
2018-01-21T07:17:47.777Z,19.33
2018-01-21T07:18:53.520Z,19.05
2018-01-21T07:20:00.076Z,20.58
2018-01-21T07:21:06.579Z,20.75
2018-01-21T07:22:12.474Z,19.02
2018-01-21T07:23:18.200Z,20.23
2018-01-21T07:24:23.962Z,20.77
2018-01-21T07:25:29.712Z,18.92
2018-01-21T07:26:36.196Z,18.60
2018-01-21T07:27:41.764Z,18.92
2018-01-21T07:28:47.534Z,19.55
2018-01-21T07:29:53.275Z,19.37
2018-01-21T07:30:59.025Z,19.50
2018-01-21T07:32:05.647Z,19.48
2018-01-21T07:33:11.382Z,20.58
2018-01-21T07:34:17.110Z,20.50
2018-01-21T07:35:22.850Z,18.90
2018-01-21T07:36:28.627Z,20.37
2018-01-21T07:37:34.367Z,19.20
2018-01-21T07:38:41.604Z,20.05
2018-01-21T07:39:47.360Z,20.95
2018-01-21T07:40:53.106Z,20.15
2018-01-21T07:41:58.889Z,19.52
2018-01-21T07:43:04.631Z,19.62
2018-01-21T07:44:10.372Z,18.85
2018-01-21T07:45:16.862Z,20.20
2018-01-21T07:46:22.768Z,20.25
2018-01-21T07:47:28.560Z,21.35
2018-01-21T07:48:34.290Z,19.10
2018-01-21T07:49:40.032Z,19.95
2018-01-21T07:50:45.752Z,18.92
2018-01-21T07:51:52.266Z,20.60
2018-01-21T07:52:58.040Z,19.67
2018-01-21T07:54:04.619Z,19.95
2018-01-21T07:55:11.367Z,18.87
2018-01-21T07:56:17.285Z,19.17
2018-01-21T07:57:23.032Z,18.48
2018-01-21T07:58:28.803Z,18.20
2018-01-21T07:59:35.332Z,20.15
2018-01-21T08:00:41.074Z,18.87
2018-01-21T08:01:46.842Z,17.62
2018-01-21T08:02:53.355Z,19.50
2018-01-21T08:03:59.122Z,20.20
2018-01-21T08:05:04.852Z,18.40
2018-01-21T08:06:10.590Z,18.33
2018-01-21T08:07:16.364Z,19.50
2018-01-21T08:08:22.341Z,18.17
2018-01-21T08:09:28.354Z,18.50
2018-01-21T08:10:34.098Z,19.40
2018-01-21T08:11:40.600Z,18.80
2018-01-21T08:12:46.329Z,19.98
2018-01-21T08:13:52.099Z,19.73
2018-01-21T08:14:58.787Z,18.73
2018-01-21T08:16:04.522Z,18.77
2018-01-21T08:17:10.239Z,18.95
2018-01-21T08:18:15.963Z,19.70
2018-01-21T08:19:21.692Z,20.62
2018-01-21T08:20:27.448Z,19.60
2018-01-21T08:21:33.603Z,19.67
2018-01-21T08:22:39.377Z,20.37
2018-01-21T08:23:45.099Z,19.75
2018-01-21T08:24:50.831Z,20.60
2018-01-21T08:25:56.602Z,20.27
2018-01-21T08:27:03.100Z,18.23
2018-01-21T08:28:09.661Z,20.30
2018-01-21T08:29:16.355Z,19.50
2018-01-21T08:30:22.090Z,19.37
2018-01-21T08:31:27.863Z,19.87
2018-01-21T08:32:33.810Z,20.15
2018-01-21T08:33:39.370Z,19.87
2018-01-21T08:34:51.282Z,21.02
2018-01-21T08:37:43.183Z,18.52
2018-01-21T08:38:54.932Z,20.05
2018-01-21T08:40:06.087Z,19.60
2018-01-21T08:42:54.170Z,21.50
2018-01-21T08:43:59.934Z,21.35
2018-01-21T08:45:06.449Z,22.50
2018-01-21T08:46:12.186Z,22.33
2018-01-21T08:47:17.946Z,20.83
2018-01-21T08:48:23.701Z,19.83
2018-01-21T08:49:29.461Z,20.10
2018-01-21T08:50:35.187Z,23.30
2018-01-21T08:51:41.511Z,20.70
2018-01-21T08:52:47.238Z,21.87
2018-01-21T08:53:53.355Z,21.33
2018-01-21T08:54:59.101Z,20.62
2018-01-21T08:56:04.843Z,20.40
2018-01-21T08:57:10.629Z,21.40
2018-01-21T08:58:16.415Z,25.50
2018-01-21T08:59:22.172Z,21.15
2018-01-21T09:00:27.901Z,24.12
2018-01-21T09:01:33.645Z,21.65
2018-01-21T09:02:39.424Z,22.08
2018-01-21T09:03:45.221Z,22.10
2018-01-21T09:04:51.079Z,24.58
2018-01-21T09:05:56.836Z,24.73
2018-01-21T09:07:02.673Z,21.40
2018-01-21T09:08:08.460Z,22.37
2018-01-21T09:09:14.394Z,22.00
2018-01-21T09:10:20.173Z,20.35
2018-01-21T09:11:26.757Z,21.45
2018-01-21T09:12:32.515Z,21.77
2018-01-21T09:13:38.241Z,22.77
2018-01-21T09:14:43.970Z,21.48
2018-01-21T09:15:49.724Z,24.33
2018-01-21T09:16:55.499Z,20.45
2018-01-21T09:18:01.021Z,21.62
2018-01-21T09:19:06.839Z,21.30
2018-01-21T09:20:12.591Z,22.33
2018-01-21T09:21:18.471Z,22.37
2018-01-21T09:22:25.292Z,21.92
2018-01-21T09:23:31.116Z,21.75
2018-01-21T09:24:37.657Z,22.75
2018-01-21T09:25:43.568Z,21.77
2018-01-21T09:26:49.348Z,23.27
2018-01-21T09:27:55.886Z,22.70
2018-01-21T09:29:01.652Z,22.60
2018-01-21T09:30:08.185Z,22.15
2018-01-21T09:31:13.936Z,22.95
2018-01-21T09:32:19.711Z,23.20
2018-01-21T09:33:25.440Z,23.12
2018-01-21T09:34:31.958Z,24.52
2018-01-21T09:35:37.715Z,24.50
2018-01-21T09:36:44.236Z,23.52
2018-01-21T09:37:50.030Z,24.17
2018-01-21T09:38:56.597Z,25.62
2018-01-21T09:40:02.712Z,24.50
2018-01-21T09:41:09.560Z,24.55
2018-01-21T09:42:15.680Z,25.55
2018-01-21T09:43:22.770Z,24.08
2018-01-21T09:44:29.059Z,25.42
2018-01-21T09:45:35.083Z,25.75
2018-01-21T09:46:41.025Z,26.87
2018-01-21T09:47:48.551Z,24.55
2018-01-21T09:48:54.333Z,26.90
2018-01-21T09:50:00.073Z,23.95
2018-01-21T09:51:05.810Z,26.17
2018-01-21T09:52:11.588Z,25.45
2018-01-21T09:53:18.224Z,24.73
2018-01-21T09:54:24.011Z,24.12
2018-01-21T09:55:29.752Z,24.77
2018-01-21T09:56:35.508Z,24.70
2018-01-21T09:57:41.308Z,23.98
2018-01-21T09:58:47.355Z,23.85
2018-01-21T09:59:53.124Z,24.10
2018-01-21T10:00:58.855Z,25.12
2018-01-21T10:02:04.410Z,25.60
2018-01-21T10:03:12.259Z,25.45
2018-01-21T10:04:18.117Z,25.30
2018-01-21T10:05:26.088Z,24.15
2018-01-21T10:06:32.128Z,26.12
2018-01-21T10:07:38.768Z,24.75
2018-01-21T10:08:45.761Z,24.10
2018-01-21T10:09:51.958Z,24.95
2018-01-21T10:10:58.459Z,24.60
2018-01-21T10:12:05.146Z,24.27
2018-01-21T10:13:11.781Z,24.52
2018-01-21T10:14:18.677Z,24.02
2018-01-21T10:15:24.690Z,24.80
2018-01-21T10:16:30.687Z,24.95
2018-01-21T10:17:36.842Z,25.75
2018-01-21T10:18:44.606Z,24.90
2018-01-21T10:19:50.584Z,26.20
2018-01-21T10:20:57.909Z,27.48
2018-01-21T10:22:05.240Z,26.62
2018-01-21T10:23:16.179Z,25.20
2018-01-21T10:24:22.019Z,24.00
2018-01-21T10:25:28.656Z,24.50
2018-01-21T10:26:36.953Z,22.58
2018-01-21T10:27:43.847Z,23.58
2018-01-21T10:28:52.196Z,22.70
2018-01-21T10:30:01.853Z,24.05
2018-01-21T10:31:08.836Z,25.80
2018-01-21T10:32:14.792Z,24.30
2018-01-21T10:33:20.868Z,23.98
2018-01-21T10:34:27.146Z,23.65
2018-01-21T10:35:35.485Z,21.40
2018-01-21T10:36:41.750Z,24.10
2018-01-21T10:37:49.546Z,23.95
2018-01-21T10:38:58.951Z,22.08
2018-01-21T10:40:06.922Z,22.23
2018-01-21T10:41:15.743Z,22.15
2018-01-21T10:42:22.805Z,21.85
2018-01-21T10:43:30.931Z,22.10
2018-01-21T10:44:37.728Z,21.50
2018-01-21T10:45:43.842Z,20.75
2018-01-21T10:46:50.905Z,22.23
2018-01-21T10:47:57.781Z,22.55
2018-01-21T10:49:05.137Z,21.62
2018-01-21T10:50:13.712Z,20.40
2018-01-21T10:51:19.772Z,20.98
2018-01-21T10:52:29.979Z,21.50
2018-01-21T10:53:36.229Z,20.67
2018-01-21T10:54:42.991Z,21.27
2018-01-21T10:55:49.192Z,19.02
2018-01-21T10:56:55.743Z,21.30
2018-01-21T10:58:04.544Z,21.77
2018-01-21T10:59:10.747Z,20.70
2018-01-21T11:00:18.959Z,22.60
2018-01-21T11:01:25.446Z,19.83
2018-01-21T11:02:31.637Z,20.23
2018-01-21T11:03:39.863Z,20.20
2018-01-21T11:04:45.984Z,20.98
2018-01-21T11:06:03.012Z,20.83
2018-01-21T11:07:11.727Z,20.33
2018-01-21T11:08:18.208Z,20.92
2018-01-21T11:09:24.724Z,20.05
2018-01-21T11:10:30.895Z,19.60
2018-01-21T11:11:38.011Z,19.35
2018-01-21T11:12:44.034Z,20.95
2018-01-21T11:13:51.471Z,19.87
2018-01-21T11:15:01.799Z,20.75
2018-01-21T11:16:10.064Z,20.50
2018-01-21T11:17:16.724Z,19.20
2018-01-21T11:18:24.071Z,19.45
2018-01-21T11:19:31.888Z,21.08
2018-01-21T11:20:38.026Z,20.52
2018-01-21T11:21:45.629Z,21.50
2018-01-21T11:22:51.581Z,22.57
2018-01-21T11:23:57.812Z,21.60
2018-01-21T11:25:05.927Z,21.55
2018-01-21T11:26:11.947Z,22.87
2018-01-21T11:27:18.454Z,21.30
2018-01-21T11:28:25.497Z,20.50
2018-01-21T11:29:34.144Z,22.23
2018-01-21T11:30:42.287Z,20.70
2018-01-21T11:31:50.727Z,20.50
2018-01-21T11:32:57.844Z,21.17
2018-01-21T11:34:07.614Z,22.55
2018-01-21T11:35:15.406Z,21.80
2018-01-21T11:36:21.580Z,23.23
2018-01-21T11:37:29.690Z,19.67
2018-01-21T11:38:37.162Z,20.90
2018-01-21T11:39:45.049Z,21.67
2018-01-21T11:40:51.265Z,22.70
2018-01-21T11:41:57.122Z,22.85
2018-01-21T11:43:03.270Z,22.23
2018-01-21T11:44:10.438Z,21.90
2018-01-21T11:45:16.562Z,22.13
2018-01-21T11:46:24.692Z,22.33
2018-01-21T11:47:30.594Z,22.25
2018-01-21T11:48:37.466Z,21.10
2018-01-21T11:49:45.940Z,23.70
2018-01-21T11:50:53.065Z,21.25
2018-01-21T11:52:00.411Z,21.37
2018-01-21T11:53:10.524Z,21.90
2018-01-21T11:54:19.186Z,21.87
2018-01-21T11:55:26.890Z,22.67
2018-01-21T11:56:33.815Z,21.50
2018-01-21T11:57:40.027Z,21.15
2018-01-21T11:58:46.794Z,22.23
2018-01-21T11:59:54.026Z,22.73
2018-01-21T12:01:05.205Z,23.50
2018-01-21T12:02:12.197Z,23.33
2018-01-21T12:03:20.344Z,23.90
2018-01-21T12:04:27.386Z,23.58
2018-01-21T12:05:35.104Z,22.45
2018-01-21T12:06:42.243Z,22.13
2018-01-21T12:07:48.763Z,24.30
2018-01-21T12:09:00.728Z,25.15
2018-01-21T12:10:06.881Z,21.60
2018-01-21T12:11:12.984Z,24.65
2018-01-21T12:12:20.122Z,21.80
2018-01-21T12:13:26.734Z,24.83
2018-01-21T12:14:32.886Z,24.70
2018-01-21T12:15:39.032Z,22.20
2018-01-21T12:16:45.942Z,22.50
2018-01-21T12:17:52.992Z,23.55
2018-01-21T12:18:59.534Z,22.15
2018-01-21T12:20:05.262Z,21.80
2018-01-21T12:21:11.372Z,24.23
2018-01-21T12:22:18.207Z,22.77
2018-01-21T12:23:24.972Z,22.60
2018-01-21T12:24:33.901Z,21.87
2018-01-21T12:25:40.906Z,20.80
2018-01-21T12:26:47.798Z,22.58
2018-01-21T12:27:53.985Z,22.23
2018-01-21T12:28:59.922Z,24.12
2018-01-21T12:30:05.773Z,23.33
2018-01-21T12:31:13.268Z,22.48
2018-01-21T12:32:20.261Z,23.65
2018-01-21T12:33:27.094Z,24.50
2018-01-21T12:34:35.281Z,24.30
2018-01-21T12:35:41.466Z,22.37
2018-01-21T12:36:49.183Z,23.60
2018-01-21T12:37:55.230Z,23.08
2018-01-21T12:39:02.216Z,21.45
2018-01-21T12:40:08.601Z,22.17
2018-01-21T12:41:15.952Z,22.65
2018-01-21T12:42:23.918Z,22.35
2018-01-21T12:43:31.492Z,23.23
2018-01-21T12:44:38.305Z,21.90
2018-01-21T12:45:44.389Z,21.20
2018-01-21T12:46:50.475Z,22.45
2018-01-21T12:47:57.862Z,20.85
2018-01-21T12:49:04.080Z,22.60
2018-01-21T12:50:11.867Z,22.15
2018-01-21T12:51:19.723Z,23.67
2018-01-21T12:52:25.858Z,22.80
2018-01-21T12:53:33.621Z,22.00
2018-01-21T12:54:39.671Z,23.20
2018-01-21T12:55:45.817Z,21.55
2018-01-21T12:56:51.893Z,20.30
2018-01-21T12:57:58.264Z,22.90
2018-01-21T12:59:04.831Z,21.83
2018-01-21T13:00:10.906Z,21.25
2018-01-21T13:01:18.307Z,21.65
2018-01-21T13:02:24.392Z,21.52
2018-01-21T13:03:31.170Z,21.17
2018-01-21T13:04:37.286Z,21.25
2018-01-21T13:05:43.412Z,21.23
2018-01-21T13:06:50.636Z,21.23
2018-01-21T13:07:56.710Z,22.35
2018-01-21T13:09:02.781Z,22.02
2018-01-21T13:10:10.936Z,21.25
2018-01-21T13:11:17.112Z,20.98
2018-01-21T13:12:23.170Z,20.50
2018-01-21T13:13:30.124Z,20.33
2018-01-21T13:14:36.232Z,19.05
2018-01-21T13:15:42.597Z,19.80
2018-01-21T13:16:52.530Z,19.77
2018-01-21T13:17:59.703Z,18.42
2018-01-21T13:19:10.399Z,20.52
2018-01-21T13:20:16.465Z,21.20
2018-01-21T13:21:24.014Z,21.65
2018-01-21T13:22:30.053Z,20.75
2018-01-21T13:23:36.194Z,20.25
2018-01-21T13:24:42.704Z,21.25
2018-01-21T13:25:49.551Z,19.95
2018-01-21T13:26:55.941Z,21.15
2018-01-21T13:28:02.966Z,18.92
2018-01-21T13:29:09.032Z,19.17
2018-01-21T13:30:15.035Z,18.85
2018-01-21T13:31:21.430Z,19.73
2018-01-21T13:32:28.079Z,20.62
2018-01-21T13:33:35.559Z,19.10
2018-01-21T13:34:41.662Z,20.12
2018-01-21T13:35:48.880Z,19.35
2018-01-21T13:36:54.958Z,21.15
2018-01-21T13:38:01.863Z,18.52
2018-01-21T13:39:09.335Z,19.00
2018-01-21T13:40:15.928Z,18.45
2018-01-21T13:41:21.942Z,18.73
2018-01-21T13:42:28.737Z,19.52
2018-01-21T13:43:34.852Z,20.12
2018-01-21T13:44:41.632Z,17.85
2018-01-21T13:45:48.445Z,18.95
2018-01-21T13:46:55.266Z,21.37
2018-01-21T13:48:02.415Z,18.27
2018-01-21T13:49:08.465Z,21.35
2018-01-21T13:50:14.871Z,20.50
2018-01-21T13:51:21.574Z,18.80
2018-01-21T13:52:27.701Z,18.40
2018-01-21T13:53:33.801Z,19.98
2018-01-21T13:54:39.888Z,20.83
2018-01-21T13:55:45.929Z,19.58
2018-01-21T13:56:51.965Z,20.20
2018-01-21T13:57:58.544Z,19.45
2018-01-21T13:59:04.591Z,19.85
2018-01-21T14:00:15.371Z,22.92
2018-01-21T14:01:22.126Z,18.52
2018-01-21T14:02:29.294Z,19.30
2018-01-21T14:03:35.236Z,18.08
2018-01-21T14:04:41.161Z,18.75
2018-01-21T14:05:48.033Z,19.75
2018-01-21T14:06:54.868Z,20.77
2018-01-21T14:08:02.897Z,18.05
2018-01-21T14:09:12.248Z,19.75
2018-01-21T14:10:17.872Z,19.67
2018-01-21T14:11:23.697Z,19.25
2018-01-21T14:12:29.763Z,20.10
2018-01-21T14:13:36.294Z,19.52
2018-01-21T14:14:43.231Z,19.35
2018-01-21T14:15:49.086Z,19.40
2018-01-21T14:16:56.270Z,19.40